Macungie, Pennsylvania
Current Conditions -  °F | °C
As of 1:55 AM on Tuesday 21 Oct 2014 (Local Time) from KXLL Reporting Station
Light Rain Light Rain  
Wind Chill: 52°   Ceiling: 8000
Heat Index: 52°   Visibility: 10mi
Dew Point: 46°   Wind: 0mph
Humidity: 82%   Direction: NA
Pressure: 29.92"   Gusts: NA
Location:  40.52°N, 75.56°W
Report Text: KXLL 210555Z AUTO 00000KT 10SM -RA SCT065 BKN080 OVC100 11/08 A2992 RMK AO2
Loading
Personal Weather Stations






























Interactive Weather Map
Tropical Storm Tracking
New forecast layout! Learn more

10-Day Weather Forecast

Advertisements
Track Severe Weather on mobile